createdAt,value
2023-04-01T00:01:24.991Z,8.70
2023-04-01T00:03:55.264Z,8.60
2023-04-01T00:08:53.613Z,8.60
2023-04-01T00:11:24.543Z,8.60
2023-04-01T00:13:52.826Z,8.50
2023-04-01T00:18:54.117Z,5.30
2023-04-01T00:21:24.001Z,8.50
2023-04-01T00:23:53.143Z,7.30
2023-04-01T00:26:22.983Z,8.50
2023-04-01T00:31:22.872Z,8.50
2023-04-01T00:36:24.224Z,8.40
2023-04-01T00:41:22.761Z,8.30
2023-04-01T00:43:53.761Z,8.40
2023-04-01T00:46:23.509Z,8.30
2023-04-01T00:48:57.329Z,8.30
2023-04-01T00:51:31.886Z,8.30
2023-04-01T00:54:04.759Z,8.30
2023-04-01T00:56:38.291Z,8.30
2023-04-01T00:59:13.808Z,8.20
2023-04-01T01:04:25.583Z,8.20
2023-04-01T01:07:12.123Z,8.20
2023-04-01T01:09:54.254Z,8.20
2023-04-01T01:12:32.519Z,8.10
2023-04-01T01:15:14.322Z,8.20
2023-04-01T01:17:59.387Z,8.10
2023-04-01T01:21:05.967Z,8.10
2023-04-01T01:27:04.366Z,7.90
2023-04-01T01:30:18.624Z,7.90
2023-04-01T01:33:17.392Z,7.80
2023-04-01T01:35:52.766Z,7.70
2023-04-01T01:38:28.646Z,7.70
2023-04-01T01:41:10.059Z,7.80
2023-04-01T01:43:45.173Z,7.70
2023-04-01T01:48:54.669Z,7.60
2023-04-01T01:56:29.960Z,7.70
2023-04-01T02:04:17.226Z,6.90
2023-04-01T02:06:55.412Z,7.70
2023-04-01T02:11:58.488Z,7.70
2023-04-01T02:14:33.110Z,7.70
2023-04-01T02:17:09.338Z,7.80
2023-04-01T02:19:44.067Z,7.80
2023-04-01T02:22:22.176Z,7.80
2023-04-01T02:24:54.798Z,7.70
2023-04-01T02:27:23.776Z,7.80
2023-04-01T02:29:53.000Z,7.80
2023-04-01T02:32:23.086Z,7.80
2023-04-01T02:37:22.973Z,7.80
2023-04-01T02:39:51.837Z,7.80
2023-04-01T02:42:20.568Z,6.80
2023-04-01T02:49:46.652Z,7.90
2023-04-01T02:52:15.147Z,7.80
2023-04-01T02:54:44.968Z,7.80
2023-04-01T02:57:13.622Z,7.70
2023-04-01T03:04:40.518Z,7.80
2023-04-01T03:12:09.297Z,7.70
2023-04-01T03:19:45.698Z,7.30
2023-04-01T03:27:13.077Z,7.40
2023-04-01T03:29:41.726Z,7.40
2023-04-01T03:34:40.164Z,7.50
2023-04-01T03:37:10.861Z,7.50
2023-04-01T03:39:39.452Z,7.60
2023-04-01T03:52:12.789Z,7.70
2023-04-01T03:57:10.724Z,7.80
2023-04-01T03:59:41.052Z,7.60
2023-04-01T04:04:40.010Z,7.40
2023-04-01T04:09:57.549Z,6.70
2023-04-01T04:12:26.016Z,6.40
2023-04-01T04:24:52.906Z,7.20
2023-04-01T04:30:01.678Z,7.30
2023-04-01T04:42:27.439Z,7.50
2023-04-01T04:45:04.009Z,7.50
2023-04-01T04:50:01.840Z,7.40
2023-04-01T04:54:59.728Z,7.50
2023-04-01T04:57:28.285Z,7.50
2023-04-01T04:59:57.759Z,7.50
2023-04-01T05:02:55.731Z,7.60
2023-04-01T05:07:53.008Z,7.60
2023-04-01T05:10:23.009Z,7.60
2023-04-01T05:15:24.384Z,7.60
2023-04-01T05:17:54.276Z,7.50
2023-04-01T05:20:34.854Z,7.60
2023-04-01T05:23:04.008Z,7.60
2023-04-01T05:30:31.531Z,8.00
2023-04-01T05:33:05.121Z,7.60
2023-04-01T05:35:34.016Z,7.60
2023-04-01T05:40:32.234Z,8.10
2023-04-01T05:43:01.552Z,7.70
2023-04-01T05:48:16.394Z,7.60
2023-04-01T05:53:14.342Z,7.70
2023-04-01T06:03:32.564Z,7.90
2023-04-01T06:08:33.092Z,7.90
2023-04-01T06:14:09.103Z,7.90
2023-04-01T06:16:59.736Z,8.00
2023-04-01T06:22:46.460Z,8.00
2023-04-01T06:25:44.449Z,8.10
2023-04-01T06:29:06.829Z,8.10
2023-04-01T06:35:17.637Z,8.20
2023-04-01T06:38:25.014Z,8.20
2023-04-01T06:41:19.520Z,8.30
2023-04-01T06:44:07.370Z,8.30
2023-04-01T06:47:01.305Z,8.40
2023-04-01T06:50:04.021Z,8.90
2023-04-01T06:53:22.066Z,8.40
2023-04-01T06:56:13.766Z,8.50
2023-04-01T06:58:48.971Z,8.50
2023-04-01T07:01:26.814Z,8.50
2023-04-01T07:04:03.213Z,8.60
2023-04-01T07:06:43.766Z,8.70
2023-04-01T07:09:19.621Z,8.80
2023-04-01T07:12:21.929Z,8.60
2023-04-01T07:17:59.289Z,9.00
2023-04-01T07:20:33.105Z,9.10
2023-04-01T07:23:13.127Z,9.30
2023-04-01T07:26:18.187Z,9.40
2023-04-01T07:29:12.324Z,9.60
2023-04-01T07:35:27.116Z,9.70
2023-04-01T07:38:16.535Z,9.70
2023-04-01T07:41:03.293Z,9.70
2023-04-01T07:43:58.334Z,9.70
2023-04-01T07:46:55.794Z,9.80
2023-04-01T07:49:35.460Z,9.90
2023-04-01T07:54:53.152Z,10.20
2023-04-01T07:57:32.345Z,10.20
2023-04-01T08:00:13.381Z,10.30
2023-04-01T08:03:36.524Z,10.40
2023-04-01T08:06:21.746Z,10.60
2023-04-01T08:09:06.439Z,10.90
2023-04-01T08:12:13.365Z,11.10
2023-04-01T08:15:18.669Z,11.00
2023-04-01T08:20:47.366Z,10.50
2023-04-01T08:23:20.596Z,10.50
2023-04-01T08:28:37.178Z,10.20
2023-04-01T08:31:14.640Z,10.20
2023-04-01T08:33:49.506Z,10.20
2023-04-01T08:36:24.607Z,10.10
2023-04-01T08:39:11.759Z,10.10
2023-04-01T08:45:23.961Z,10.10
2023-04-01T08:48:38.752Z,10.20
2023-04-01T08:51:58.239Z,10.40
2023-04-01T08:55:04.977Z,10.50
2023-04-01T08:58:21.445Z,10.40
2023-04-01T09:01:24.012Z,10.50
2023-04-01T09:04:27.744Z,10.50
2023-04-01T09:07:25.231Z,10.40
2023-04-01T09:13:31.672Z,10.40
2023-04-01T09:16:23.833Z,10.50
2023-04-01T09:19:22.499Z,10.40
2023-04-01T09:22:20.266Z,10.40
2023-04-01T09:28:04.562Z,10.30
2023-04-01T09:31:14.743Z,10.30
2023-04-01T09:34:40.657Z,10.20
2023-04-01T09:37:24.034Z,10.30
2023-04-01T09:40:19.217Z,10.30
2023-04-01T09:43:27.342Z,10.40
2023-04-01T09:46:18.737Z,10.40
2023-04-01T09:50:06.314Z,10.40
2023-04-01T09:52:47.081Z,10.30
2023-04-01T09:59:19.536Z,10.30
2023-04-01T10:03:22.495Z,10.30
2023-04-01T10:06:33.718Z,10.30
2023-04-01T10:09:52.084Z,10.40
2023-04-01T10:12:58.411Z,10.40
2023-04-01T10:16:15.504Z,10.40
2023-04-01T10:19:23.628Z,10.50
2023-04-01T10:22:29.367Z,10.60
2023-04-01T10:28:39.043Z,10.70
2023-04-01T10:32:05.433Z,10.60
2023-04-01T10:36:59.046Z,11.00
2023-04-01T10:40:29.207Z,10.10
2023-04-01T10:44:02.680Z,9.90
2023-04-01T10:47:21.434Z,9.80
2023-04-01T10:50:26.824Z,9.70
2023-04-01T10:53:44.923Z,9.50
2023-04-01T10:56:49.596Z,9.30
2023-04-01T11:00:20.824Z,9.10
2023-04-01T11:04:13.597Z,8.90
2023-04-01T11:08:04.937Z,8.90
2023-04-01T11:11:31.650Z,8.90
2023-04-01T11:14:37.670Z,8.70
2023-04-01T11:18:06.372Z,8.70
2023-04-01T11:21:49.859Z,8.60
2023-04-01T11:25:02.797Z,8.60
2023-04-01T11:28:07.696Z,8.60
2023-04-01T11:31:13.996Z,8.60
2023-04-01T11:33:54.421Z,8.50
2023-04-01T11:36:41.374Z,8.50
2023-04-01T11:39:26.790Z,8.60
2023-04-01T11:42:21.719Z,8.50
2023-04-01T11:45:14.422Z,8.60
2023-04-01T11:48:16.418Z,8.60
2023-04-01T11:51:07.371Z,8.50
2023-04-01T11:53:51.636Z,8.50
2023-04-01T11:56:49.217Z,8.50
2023-04-01T12:00:13.100Z,8.50
2023-04-01T12:03:03.189Z,8.50
2023-04-01T12:05:49.191Z,8.40
2023-04-01T12:08:36.167Z,8.60
2023-04-01T12:11:20.065Z,8.40
2023-04-01T12:13:58.233Z,8.40
2023-04-01T12:16:55.189Z,8.30
2023-04-01T12:19:38.608Z,8.30
2023-04-01T12:22:46.554Z,8.40
2023-04-01T12:25:41.153Z,8.40
2023-04-01T12:28:26.955Z,8.40
2023-04-01T12:31:21.520Z,8.40
2023-04-01T12:34:40.377Z,8.40
2023-04-01T12:37:19.877Z,8.40
2023-04-01T12:40:08.316Z,8.40
2023-04-01T12:43:03.213Z,8.50
2023-04-01T12:45:34.708Z,8.60
2023-04-01T12:48:41.323Z,8.70
2023-04-01T12:52:00.625Z,8.90
2023-04-01T12:55:11.458Z,8.90
2023-04-01T12:58:24.155Z,8.90
2023-04-01T13:01:21.776Z,8.70
2023-04-01T13:04:34.428Z,8.90
2023-04-01T13:07:40.493Z,8.80
2023-04-01T13:10:29.752Z,8.80
2023-04-01T13:13:47.771Z,8.80
2023-04-01T13:16:25.147Z,8.80
2023-04-01T13:19:05.867Z,8.80
2023-04-01T13:21:52.916Z,8.90
2023-04-01T13:24:47.039Z,8.90
2023-04-01T13:27:25.282Z,8.90
2023-04-01T13:30:11.312Z,8.90
2023-04-01T13:32:49.373Z,8.90
2023-04-01T13:35:43.150Z,9.10
2023-04-01T13:38:42.731Z,9.10
2023-04-01T13:41:30.098Z,9.20
2023-04-01T13:44:09.012Z,9.20
2023-04-01T13:47:26.900Z,9.20
2023-04-01T13:50:34.729Z,9.10
2023-04-01T13:53:37.102Z,9.10
2023-04-01T13:56:23.668Z,9.20
2023-04-01T13:59:32.013Z,9.10
2023-04-01T14:02:26.935Z,9.20
2023-04-01T14:05:43.199Z,9.90
2023-04-01T14:08:38.091Z,9.30
2023-04-01T14:11:24.029Z,9.40
2023-04-01T14:14:13.838Z,9.70
2023-04-01T14:17:20.100Z,9.60
2023-04-01T14:20:24.362Z,9.70
2023-04-01T14:23:31.159Z,9.90
2023-04-01T14:26:24.259Z,9.90
2023-04-01T14:29:05.835Z,10.00
2023-04-01T14:31:56.112Z,10.00
2023-04-01T14:34:41.641Z,10.00
2023-04-01T14:37:33.657Z,10.00
2023-04-01T14:40:28.509Z,10.00
2023-04-01T14:43:27.087Z,9.90
2023-04-01T14:46:35.948Z,9.90
2023-04-01T14:49:20.112Z,10.00
2023-04-01T14:54:24.590Z,10.10
2023-04-01T14:57:12.173Z,10.90
2023-04-01T14:59:53.970Z,10.20
2023-04-01T15:02:46.129Z,10.20
2023-04-01T15:05:34.985Z,10.10
2023-04-01T15:08:13.619Z,10.00
2023-04-01T15:11:35.410Z,9.90
2023-04-01T15:14:27.257Z,9.80
2023-04-01T15:17:22.047Z,9.80
2023-04-01T15:20:15.909Z,9.70
2023-04-01T15:23:10.222Z,9.70
2023-04-01T15:26:03.882Z,9.60
2023-04-01T15:28:44.218Z,9.60
2023-04-01T15:31:26.210Z,10.00
2023-04-01T15:34:24.432Z,9.30
2023-04-01T15:37:02.114Z,9.20
2023-04-01T15:39:56.440Z,9.30
2023-04-01T15:42:57.328Z,9.20
2023-04-01T15:45:44.125Z,9.20
2023-04-01T15:48:48.952Z,9.20
2023-04-01T15:51:57.420Z,9.20
2023-04-01T15:55:02.063Z,9.20
2023-04-01T15:57:43.008Z,9.10
2023-04-01T16:00:33.060Z,9.10
2023-04-01T16:03:33.113Z,9.00
2023-04-01T16:06:34.598Z,9.00
2023-04-01T16:09:28.241Z,9.00
2023-04-01T16:12:08.757Z,6.80
2023-04-01T16:14:54.535Z,8.90
2023-04-01T16:18:05.712Z,8.90
2023-04-01T16:20:54.944Z,8.80
2023-04-01T16:23:38.316Z,8.80
2023-04-01T16:26:17.860Z,8.70
2023-04-01T16:28:57.305Z,8.70
2023-04-01T16:31:37.978Z,8.80
2023-04-01T16:34:18.654Z,8.80
2023-04-01T16:36:52.498Z,8.80
2023-04-01T16:42:22.531Z,8.90
2023-04-01T16:44:57.847Z,8.90
2023-04-01T16:50:12.385Z,8.90
2023-04-01T16:53:00.986Z,8.90
2023-04-01T16:55:46.970Z,8.90
2023-04-01T16:58:27.306Z,8.90
2023-04-01T17:01:04.938Z,8.90
2023-04-01T17:03:42.453Z,8.90
2023-04-01T17:06:33.717Z,8.90
2023-04-01T17:09:29.683Z,8.80
2023-04-01T17:12:09.967Z,8.90
2023-04-01T17:17:44.767Z,8.80
2023-04-01T17:20:32.086Z,8.70
2023-04-01T17:23:14.027Z,8.70
2023-04-01T17:26:09.816Z,8.70
2023-04-01T17:28:51.898Z,8.60
2023-04-01T17:31:41.135Z,8.70
2023-04-01T17:34:34.814Z,8.60
2023-04-01T17:37:31.155Z,8.60
2023-04-01T17:40:22.981Z,8.50
2023-04-01T17:43:03.316Z,8.50
2023-04-01T17:45:42.821Z,8.50
2023-04-01T17:48:29.194Z,8.50
2023-04-01T17:54:18.393Z,8.50
2023-04-01T17:57:04.347Z,8.50
2023-04-01T17:59:40.387Z,8.50
2023-04-01T18:02:27.917Z,8.50
2023-04-01T18:05:29.661Z,8.60
2023-04-01T18:08:17.464Z,8.50
2023-04-01T18:11:02.291Z,8.50
2023-04-01T18:14:31.652Z,8.40
2023-04-01T18:17:25.969Z,8.50
2023-04-01T18:20:21.972Z,8.50
2023-04-01T18:22:59.652Z,8.50
2023-04-01T18:25:38.418Z,8.40
2023-04-01T18:28:34.508Z,8.50
2023-04-01T18:31:13.685Z,8.50
2023-04-01T18:34:01.729Z,8.60
2023-04-01T18:36:46.720Z,8.50
2023-04-01T18:39:25.529Z,8.60
2023-04-01T18:42:06.956Z,8.60
2023-04-01T18:44:48.122Z,8.60
2023-04-01T18:47:31.313Z,8.60
2023-04-01T18:50:16.125Z,8.60
2023-04-01T18:52:51.331Z,8.50
2023-04-01T18:55:37.650Z,8.50
2023-04-01T18:58:26.932Z,8.50
2023-04-01T19:01:13.836Z,8.40
2023-04-01T19:03:58.737Z,8.40
2023-04-01T19:09:21.343Z,8.40
2023-04-01T19:12:29.824Z,8.30
2023-04-01T19:15:28.887Z,8.30
2023-04-01T19:18:23.511Z,8.30
2023-04-01T19:21:01.955Z,8.20
2023-04-01T19:24:09.467Z,8.30
2023-04-01T19:26:46.384Z,8.20
2023-04-01T19:29:39.015Z,8.30
2023-04-01T19:32:23.689Z,8.30
2023-04-01T19:35:08.361Z,8.20
2023-04-01T19:37:43.132Z,8.30
2023-04-01T19:40:36.959Z,8.30
2023-04-01T19:43:25.328Z,8.30
2023-04-01T19:46:09.878Z,8.30
2023-04-01T19:51:37.711Z,9.20
2023-04-01T19:54:27.083Z,8.30
2023-04-01T19:57:12.592Z,8.40
2023-04-01T19:59:51.440Z,8.40
2023-04-01T20:02:52.904Z,8.40
2023-04-01T20:05:47.829Z,8.40
2023-04-01T20:08:31.190Z,8.40
2023-04-01T20:11:16.288Z,8.50
2023-04-01T20:14:01.149Z,8.40
2023-04-01T20:19:37.541Z,9.00
2023-04-01T20:22:26.452Z,8.40
2023-04-01T20:25:01.675Z,8.40
2023-04-01T20:30:55.479Z,8.50
2023-04-01T20:34:06.890Z,8.50
2023-04-01T20:36:48.767Z,8.50
2023-04-01T20:40:01.832Z,8.50
2023-04-01T20:42:50.578Z,8.50
2023-04-01T20:45:35.054Z,8.50
2023-04-01T20:48:44.910Z,8.40
2023-04-01T20:51:17.897Z,8.50
2023-04-01T20:53:53.596Z,8.50
2023-04-01T20:56:42.778Z,8.50
2023-04-01T20:59:35.508Z,8.40
2023-04-01T21:02:25.763Z,8.40
2023-04-01T21:05:45.153Z,8.30
2023-04-01T21:08:24.551Z,8.40
2023-04-01T21:11:05.853Z,8.40
2023-04-01T21:14:08.875Z,8.40
2023-04-01T21:16:52.191Z,8.40
2023-04-01T21:19:47.107Z,8.40
2023-04-01T21:22:56.781Z,8.40
2023-04-01T21:25:36.664Z,8.50
2023-04-01T21:28:37.786Z,8.50
2023-04-01T21:31:27.546Z,8.40
2023-04-01T21:34:35.089Z,8.40
2023-04-01T21:37:32.042Z,8.40
2023-04-01T21:40:47.191Z,8.30
2023-04-01T21:43:40.850Z,8.30
2023-04-01T21:47:18.861Z,8.30
2023-04-01T21:50:41.043Z,8.20
2023-04-01T21:54:22.049Z,8.10
2023-04-01T21:57:47.779Z,8.00
2023-04-01T22:00:27.353Z,7.90
2023-04-01T22:03:37.045Z,8.00
2023-04-01T22:06:23.027Z,7.90
2023-04-01T22:11:50.420Z,7.70
2023-04-01T22:14:41.322Z,7.70
2023-04-01T22:17:24.145Z,7.70
2023-04-01T22:20:04.648Z,7.80
2023-04-01T22:22:54.562Z,7.80
2023-04-01T22:25:31.015Z,7.80
2023-04-01T22:28:09.815Z,8.00
2023-04-01T22:30:49.595Z,7.90
2023-04-01T22:33:33.403Z,8.00
2023-04-01T22:36:16.927Z,8.00
2023-04-01T22:39:07.035Z,8.00
2023-04-01T22:41:58.692Z,8.00
2023-04-01T22:44:45.405Z,8.00
2023-04-01T22:47:24.893Z,8.00
2023-04-01T22:50:03.543Z,8.00
2023-04-01T22:52:39.348Z,8.00
2023-04-01T22:55:17.913Z,8.00
2023-04-01T22:57:54.190Z,8.00
2023-04-01T23:00:30.101Z,8.00
2023-04-01T23:03:20.160Z,8.00
2023-04-01T23:05:54.180Z,7.90
2023-04-01T23:08:59.335Z,7.90
2023-04-01T23:11:34.233Z,7.90
2023-04-01T23:14:39.210Z,7.90
2023-04-01T23:17:33.337Z,8.00
2023-04-01T23:20:20.042Z,8.00
2023-04-01T23:23:07.996Z,7.90
2023-04-01T23:25:51.590Z,7.90
2023-04-01T23:28:40.065Z,7.90
2023-04-01T23:31:39.824Z,8.10
2023-04-01T23:34:32.306Z,7.90
2023-04-01T23:37:07.219Z,7.90
2023-04-01T23:39:39.308Z,7.90
2023-04-01T23:42:16.751Z,7.90
2023-04-01T23:44:45.884Z,7.90
2023-04-01T23:47:20.121Z,7.90
2023-04-01T23:49:53.596Z,7.90
2023-04-01T23:52:27.489Z,7.80
2023-04-01T23:55:00.932Z,7.80
2023-04-01T23:57:33.811Z,8.70
